createdAt,value
2022-08-15T00:00:44.366Z,58.22
2022-08-15T00:04:00.627Z,58.29
2022-08-15T00:06:38.948Z,57.87
2022-08-15T00:09:16.281Z,57.65
2022-08-15T00:11:52.397Z,57.46
2022-08-15T00:14:31.880Z,57.57
2022-08-15T00:17:10.984Z,57.18
2022-08-15T00:19:41.317Z,57.30
2022-08-15T00:22:18.575Z,57.46
2022-08-15T00:24:51.312Z,57.54
2022-08-15T00:27:25.858Z,57.42
2022-08-15T00:29:54.736Z,57.02
2022-08-15T00:33:02.678Z,56.61
2022-08-15T00:35:38.664Z,56.60
2022-08-15T00:38:21.638Z,56.31
2022-08-15T00:41:20.956Z,56.93
2022-08-15T00:43:57.486Z,56.81
2022-08-15T00:46:27.178Z,57.08
2022-08-15T00:48:56.465Z,56.99
2022-08-15T00:51:32.091Z,56.69
2022-08-15T00:54:56.097Z,56.61
2022-08-15T00:57:10.651Z,56.63
2022-08-15T00:59:43.651Z,57.03
2022-08-15T01:02:23.083Z,56.99
2022-08-15T01:05:03.716Z,57.43
2022-08-15T01:07:30.604Z,57.25
2022-08-15T01:10:00.439Z,56.93
2022-08-15T01:12:28.944Z,57.02
2022-08-15T01:15:02.767Z,56.56
2022-08-15T01:17:31.809Z,56.53
2022-08-15T01:20:07.288Z,56.32
2022-08-15T01:23:05.571Z,56.49
2022-08-15T01:26:41.030Z,56.83
2022-08-15T01:28:46.226Z,57.08
2022-08-15T01:31:22.206Z,56.97
2022-08-15T01:33:59.116Z,56.82
2022-08-15T01:36:32.954Z,56.52
2022-08-15T01:39:16.944Z,56.57
2022-08-15T01:41:58.939Z,56.50
2022-08-15T01:44:37.261Z,56.70
2022-08-15T01:47:27.238Z,56.29
2022-08-15T01:50:12.242Z,56.50
2022-08-15T01:53:09.794Z,56.65
2022-08-15T01:55:53.401Z,56.58
2022-08-15T01:58:23.267Z,57.13
2022-08-15T02:00:53.732Z,57.40
2022-08-15T02:03:21.363Z,57.59
2022-08-15T02:05:50.067Z,58.17
2022-08-15T02:08:34.991Z,58.14
2022-08-15T02:11:16.018Z,57.70
2022-08-15T02:13:48.826Z,57.91
2022-08-15T02:16:20.669Z,57.69
2022-08-15T02:18:48.064Z,58.00
2022-08-15T02:21:19.704Z,57.71
2022-08-15T02:23:46.319Z,57.14
2022-08-15T02:26:13.082Z,57.12
2022-08-15T02:28:44.606Z,57.36
2022-08-15T02:31:23.778Z,57.80
2022-08-15T02:33:57.274Z,57.08
2022-08-15T02:36:31.352Z,57.01
2022-08-15T02:39:00.721Z,56.81
2022-08-15T02:41:37.837Z,56.88
2022-08-15T02:44:13.467Z,57.42
2022-08-15T02:47:03.743Z,56.83
2022-08-15T02:49:35.470Z,56.55
2022-08-15T02:52:21.064Z,56.92
2022-08-15T02:54:58.785Z,57.17
2022-08-15T02:57:29.039Z,56.93
2022-08-15T02:59:55.910Z,56.71
2022-08-15T03:02:29.888Z,57.44
2022-08-15T03:04:57.667Z,57.46
2022-08-15T03:07:24.942Z,57.67
2022-08-15T03:09:56.635Z,57.41
2022-08-15T03:12:31.043Z,57.34
2022-08-15T03:15:02.822Z,57.11
2022-08-15T03:17:34.957Z,56.93
2022-08-15T03:20:05.266Z,56.16
2022-08-15T03:22:46.850Z,56.42
2022-08-15T03:25:29.527Z,55.88
2022-08-15T03:27:57.193Z,56.20
2022-08-15T03:30:24.099Z,56.35
2022-08-15T03:32:56.823Z,56.19
2022-08-15T03:35:27.549Z,56.35
2022-08-15T03:38:00.243Z,56.09
2022-08-15T03:40:30.173Z,56.09
2022-08-15T03:43:11.763Z,56.00
2022-08-15T03:45:49.881Z,56.05
2022-08-15T03:48:20.791Z,55.76
2022-08-15T03:50:57.296Z,55.85
2022-08-15T03:53:31.045Z,55.86
2022-08-15T03:56:00.854Z,55.48
2022-08-15T03:58:35.569Z,56.00
2022-08-15T04:01:06.495Z,55.77
2022-08-15T04:03:33.470Z,55.87
2022-08-15T04:06:07.549Z,56.27
2022-08-15T04:08:44.167Z,56.37
2022-08-15T04:11:34.981Z,56.71
2022-08-15T04:14:07.552Z,56.62
2022-08-15T04:17:04.182Z,56.00
2022-08-15T04:19:45.965Z,55.81
2022-08-15T04:22:28.359Z,55.49
2022-08-15T04:25:17.835Z,55.68
2022-08-15T04:27:52.507Z,55.96
2022-08-15T04:30:23.641Z,56.13
2022-08-15T04:33:00.285Z,56.25
2022-08-15T04:35:38.896Z,55.83
2022-08-15T04:38:06.281Z,54.50
2022-08-15T04:41:17.847Z,55.59
2022-08-15T04:43:21.430Z,56.48
2022-08-15T04:45:48.831Z,56.55
2022-08-15T04:48:19.568Z,56.42
2022-08-15T04:50:49.512Z,56.56
2022-08-15T04:53:20.906Z,56.41
2022-08-15T04:55:53.450Z,56.52
2022-08-15T04:58:41.798Z,55.95
2022-08-15T05:01:13.906Z,55.99
2022-08-15T05:03:42.662Z,56.79
2022-08-15T05:06:29.656Z,57.11
2022-08-15T05:08:57.481Z,57.08
2022-08-15T05:11:24.213Z,56.93
2022-08-15T05:13:50.751Z,57.12
2022-08-15T05:16:17.460Z,57.04
2022-08-15T05:18:46.425Z,56.68
2022-08-15T05:21:13.925Z,56.38
2022-08-15T05:23:43.290Z,55.38
2022-08-15T05:26:37.191Z,55.65
2022-08-15T05:28:59.773Z,55.86
2022-08-15T05:31:32.522Z,55.26
2022-08-15T05:34:01.716Z,55.77
2022-08-15T05:36:30.423Z,55.25
2022-08-15T05:39:20.070Z,55.15
2022-08-15T05:42:12.104Z,55.61
2022-08-15T05:44:53.157Z,55.29
2022-08-15T05:47:33.345Z,54.87
2022-08-15T05:50:14.891Z,55.33
2022-08-15T05:53:06.469Z,54.70
2022-08-15T05:55:44.491Z,55.49
2022-08-15T05:58:43.353Z,55.06
2022-08-15T06:01:15.249Z,54.05
2022-08-15T06:03:49.134Z,54.12
2022-08-15T06:06:26.248Z,53.73
2022-08-15T06:09:04.567Z,52.97
2022-08-15T06:11:39.860Z,53.42
2022-08-15T06:14:46.526Z,53.35
2022-08-15T06:17:25.403Z,52.63
2022-08-15T06:19:53.734Z,52.78
2022-08-15T06:22:48.770Z,52.81
2022-08-15T06:25:37.070Z,53.07
2022-08-15T06:28:51.958Z,52.85
2022-08-15T06:32:44.603Z,52.93
2022-08-15T06:35:26.222Z,52.86
2022-08-15T06:38:04.268Z,52.84
2022-08-15T06:40:55.773Z,52.76
2022-08-15T06:43:23.815Z,52.66
2022-08-15T06:45:56.074Z,52.50
2022-08-15T06:48:55.826Z,52.05
2022-08-15T06:51:19.658Z,52.30
2022-08-15T06:53:51.494Z,52.47
2022-08-15T06:56:57.311Z,52.83
2022-08-15T06:59:56.276Z,52.74
2022-08-15T07:02:41.433Z,53.28
2022-08-15T07:05:25.241Z,53.08
2022-08-15T07:08:08.881Z,53.03
2022-08-15T07:10:49.221Z,52.85
2022-08-15T07:13:26.066Z,52.46
2022-08-15T07:16:07.119Z,52.80
2022-08-15T07:18:57.827Z,52.69
2022-08-15T07:21:52.405Z,52.54
2022-08-15T07:24:35.542Z,52.69
2022-08-15T07:27:07.118Z,52.62
2022-08-15T07:29:55.734Z,51.79
2022-08-15T07:32:42.020Z,52.45
2022-08-15T07:35:13.729Z,52.56
2022-08-15T07:38:21.768Z,52.52
2022-08-15T07:40:56.371Z,53.09
2022-08-15T07:43:33.572Z,53.15
2022-08-15T07:46:23.116Z,53.46
2022-08-15T07:49:02.583Z,53.56
2022-08-15T07:51:43.466Z,53.80
2022-08-15T07:54:50.352Z,53.63
2022-08-15T07:57:50.984Z,53.61
2022-08-15T08:00:38.976Z,54.20
2022-08-15T08:03:22.633Z,54.03
2022-08-15T08:06:34.337Z,53.77
2022-08-15T08:09:25.245Z,53.73
2022-08-15T08:11:55.792Z,53.14
2022-08-15T08:14:40.351Z,52.97
2022-08-15T08:17:19.876Z,53.52
2022-08-15T08:20:09.598Z,54.08
2022-08-15T08:22:48.873Z,54.38
2022-08-15T08:26:03.739Z,54.64
2022-08-15T08:28:48.839Z,54.72
2022-08-15T08:31:43.660Z,55.65
2022-08-15T08:34:50.321Z,54.84
2022-08-15T08:37:32.309Z,55.32
2022-08-15T08:40:24.418Z,54.87
2022-08-15T08:43:32.818Z,55.82
2022-08-15T08:46:30.820Z,54.92
2022-08-15T08:50:31.263Z,55.36
2022-08-15T08:52:55.809Z,55.25
2022-08-15T08:55:45.619Z,55.19
2022-08-15T08:58:36.761Z,55.31
2022-08-15T09:01:13.999Z,55.56
2022-08-15T09:03:50.634Z,54.96
2022-08-15T09:06:26.605Z,55.96
2022-08-15T09:09:06.006Z,56.56
2022-08-15T09:11:56.651Z,56.45
2022-08-15T09:14:43.346Z,56.34
2022-08-15T09:17:31.849Z,56.29
2022-08-15T09:20:19.667Z,56.31
2022-08-15T09:22:53.230Z,56.14
2022-08-15T09:25:24.648Z,57.44
2022-08-15T09:28:28.754Z,57.36
2022-08-15T09:30:57.721Z,56.92
2022-08-15T09:34:11.696Z,57.07
2022-08-15T09:37:01.272Z,57.11
2022-08-15T09:40:02.484Z,56.91
2022-08-15T09:43:15.672Z,57.01
2022-08-15T09:46:36.823Z,57.34
2022-08-15T09:49:18.595Z,56.30
2022-08-15T09:52:07.169Z,56.89
2022-08-15T09:54:51.597Z,57.46
2022-08-15T09:57:32.161Z,57.69
2022-08-15T10:00:03.112Z,57.11
2022-08-15T10:02:37.533Z,57.14
2022-08-15T10:05:12.028Z,57.63
2022-08-15T10:07:59.330Z,57.33
2022-08-15T10:10:38.609Z,56.82
2022-08-15T10:13:08.030Z,56.58
2022-08-15T10:15:45.484Z,56.99
2022-08-15T10:18:23.916Z,56.85
2022-08-15T10:21:18.182Z,56.93
2022-08-15T10:23:58.839Z,55.46
2022-08-15T10:26:33.964Z,55.72
2022-08-15T10:29:15.282Z,55.14
2022-08-15T10:31:55.767Z,53.89
2022-08-15T10:34:57.004Z,54.10
2022-08-15T10:37:30.244Z,53.85
2022-08-15T10:40:12.789Z,53.62
2022-08-15T10:42:55.404Z,53.50
2022-08-15T10:45:55.834Z,53.79
2022-08-15T10:48:44.838Z,53.17
2022-08-15T10:51:21.430Z,53.88
2022-08-15T10:54:24.254Z,53.65
2022-08-15T10:57:09.183Z,54.50
2022-08-15T10:59:45.388Z,54.55
2022-08-15T11:02:37.640Z,54.66
2022-08-15T11:05:15.632Z,54.83
2022-08-15T11:07:57.589Z,54.37
2022-08-15T11:10:28.501Z,54.42
2022-08-15T11:13:02.523Z,54.19
2022-08-15T11:15:34.187Z,54.33
2022-08-15T11:18:21.955Z,54.33
2022-08-15T11:20:53.408Z,54.39
2022-08-15T11:23:42.277Z,54.45
2022-08-15T11:26:19.226Z,55.06
2022-08-15T11:28:57.088Z,55.24
2022-08-15T11:31:33.891Z,55.84
2022-08-15T11:34:23.926Z,56.05
2022-08-15T11:36:51.848Z,56.49
2022-08-15T11:39:24.333Z,57.26
2022-08-15T11:41:57.170Z,57.73
2022-08-15T11:44:32.118Z,58.14
2022-08-15T11:47:00.750Z,57.96
2022-08-15T11:49:43.471Z,58.31
2022-08-15T11:52:39.202Z,59.51
2022-08-15T11:55:23.744Z,61.20
2022-08-15T11:57:59.618Z,61.94
2022-08-15T12:00:39.654Z,63.41
2022-08-15T12:04:41.810Z,63.39
2022-08-15T12:06:29.674Z,63.21
2022-08-15T12:09:43.018Z,63.42
2022-08-15T12:12:50.477Z,63.97
2022-08-15T12:15:21.975Z,63.64
2022-08-15T12:18:24.295Z,64.03
2022-08-15T12:20:55.797Z,63.90
2022-08-15T12:23:47.500Z,64.01
2022-08-15T12:26:39.244Z,63.11
2022-08-15T12:29:06.750Z,61.79
2022-08-15T12:31:43.000Z,60.98
2022-08-15T12:34:27.622Z,62.24
2022-08-15T12:37:01.945Z,61.83
2022-08-15T12:39:34.001Z,61.14
2022-08-15T12:42:49.512Z,59.94
2022-08-15T12:44:49.792Z,58.56
2022-08-15T12:47:17.151Z,57.70
2022-08-15T12:49:47.535Z,57.41
2022-08-15T12:52:14.829Z,57.18
2022-08-15T12:54:46.042Z,58.24
2022-08-15T12:57:16.902Z,56.59
2022-08-15T12:59:46.498Z,56.77
2022-08-15T13:02:47.321Z,55.32
2022-08-15T13:05:01.855Z,56.43
2022-08-15T13:07:30.779Z,55.60
2022-08-15T13:09:59.461Z,56.77
2022-08-15T13:12:26.384Z,57.08
2022-08-15T13:14:53.120Z,56.92
2022-08-15T13:17:53.081Z,55.88
2022-08-15T13:20:28.492Z,54.06
2022-08-15T13:23:13.662Z,52.92
2022-08-15T13:25:41.764Z,54.84
2022-08-15T13:28:11.356Z,54.09
2022-08-15T13:30:41.526Z,53.51
2022-08-15T13:33:08.561Z,51.71
2022-08-15T13:35:58.765Z,51.72
2022-08-15T13:38:24.577Z,53.38
2022-08-15T13:40:55.220Z,55.00
2022-08-15T13:43:23.895Z,54.34
2022-08-15T13:45:58.940Z,53.72
2022-08-15T13:48:39.071Z,52.92
2022-08-15T13:51:14.815Z,53.92
2022-08-15T13:56:33.328Z,53.63
2022-08-15T13:59:02.403Z,53.93
2022-08-15T14:01:34.393Z,52.31
2022-08-15T14:04:13.871Z,50.74
2022-08-15T14:06:54.649Z,49.83
2022-08-15T14:10:04.509Z,49.01
2022-08-15T14:12:11.822Z,47.69
2022-08-15T14:14:39.237Z,47.06
2022-08-15T14:17:27.326Z,46.99
2022-08-15T14:20:01.952Z,49.87
2022-08-15T14:22:30.255Z,49.12
2022-08-15T14:25:28.328Z,45.31
2022-08-15T14:30:34.672Z,40.19
2022-08-15T14:33:01.852Z,41.06
2022-08-15T14:35:42.746Z,40.60
2022-08-15T14:38:12.438Z,42.24
2022-08-15T14:40:43.177Z,46.88
2022-08-15T14:43:17.963Z,47.03
2022-08-15T14:46:31.302Z,47.79
2022-08-15T14:48:49.424Z,48.83
2022-08-15T14:52:01.646Z,47.10
2022-08-15T14:54:44.241Z,46.76
2022-08-15T14:57:09.139Z,47.90
2022-08-15T14:59:57.920Z,48.13
2022-08-15T15:02:25.666Z,47.63
2022-08-15T15:04:56.034Z,47.78
2022-08-15T15:07:26.469Z,48.24
2022-08-15T15:10:23.759Z,49.08
2022-08-15T15:13:00.210Z,51.51
2022-08-15T15:15:40.448Z,56.98
2022-08-15T15:18:38.195Z,56.53
2022-08-15T15:21:00.328Z,58.12
2022-08-15T15:23:28.154Z,59.37
2022-08-15T15:25:55.850Z,59.55
2022-08-15T15:28:41.914Z,60.13
2022-08-15T15:31:14.501Z,59.80
2022-08-15T15:33:43.450Z,59.00
2022-08-15T15:36:27.296Z,59.05
2022-08-15T15:39:01.419Z,58.62
2022-08-15T15:41:30.110Z,57.95
2022-08-15T15:44:14.586Z,57.38
2022-08-15T15:46:44.255Z,57.67
2022-08-15T15:49:17.535Z,57.92
2022-08-15T15:51:44.401Z,56.74
2022-08-15T15:54:36.075Z,54.86
2022-08-15T15:57:07.980Z,55.95
2022-08-15T16:00:00.252Z,52.35
2022-08-15T16:02:43.528Z,52.33
2022-08-15T16:05:11.425Z,52.44
2022-08-15T16:07:56.469Z,52.69
2022-08-15T16:10:40.369Z,52.13
2022-08-15T16:13:16.860Z,51.39
2022-08-15T16:15:49.744Z,51.47
2022-08-15T16:18:29.375Z,52.04
2022-08-15T16:21:13.055Z,51.86
2022-08-15T16:23:47.925Z,52.41
2022-08-15T16:26:30.039Z,52.20
2022-08-15T16:29:13.430Z,51.70
2022-08-15T16:31:53.294Z,51.30
2022-08-15T16:34:38.029Z,51.33
2022-08-15T16:37:11.289Z,50.17
2022-08-15T16:39:47.083Z,50.84
2022-08-15T16:42:41.389Z,51.45
2022-08-15T16:45:24.101Z,52.36
2022-08-15T16:48:10.418Z,52.59
2022-08-15T16:51:12.853Z,52.60
2022-08-15T16:54:10.317Z,54.16
2022-08-15T16:57:16.523Z,54.68
2022-08-15T17:00:18.720Z,54.61
2022-08-15T17:03:39.188Z,54.89
2022-08-15T17:06:26.180Z,55.28
2022-08-15T17:09:21.525Z,55.45
2022-08-15T17:12:02.259Z,55.45
2022-08-15T17:14:52.398Z,55.36
2022-08-15T17:17:42.284Z,55.24
2022-08-15T17:20:21.648Z,55.25
2022-08-15T17:23:07.477Z,55.40
2022-08-15T17:25:41.408Z,54.72
2022-08-15T17:28:36.856Z,55.15
2022-08-15T17:31:11.257Z,55.20
2022-08-15T17:33:52.573Z,54.24
2022-08-15T17:36:20.273Z,54.12
2022-08-15T17:39:13.736Z,54.50
2022-08-15T17:41:48.131Z,54.15
2022-08-15T17:44:55.835Z,54.55
2022-08-15T17:47:23.840Z,54.64
2022-08-15T17:49:56.631Z,54.74
2022-08-15T17:52:28.920Z,54.86
2022-08-15T17:58:09.292Z,54.92
2022-08-15T18:00:36.880Z,54.91
2022-08-15T18:03:09.620Z,54.75
2022-08-15T18:05:37.006Z,54.95
2022-08-15T18:08:26.225Z,54.89
2022-08-15T18:10:58.259Z,55.00
2022-08-15T18:13:29.560Z,54.99
2022-08-15T18:16:20.894Z,54.92
2022-08-15T18:18:59.671Z,55.68
2022-08-15T18:21:31.536Z,56.82
2022-08-15T18:24:00.249Z,57.58
2022-08-15T18:26:55.064Z,58.21
2022-08-15T18:29:23.654Z,58.11
2022-08-15T18:32:03.191Z,58.46
2022-08-15T18:34:53.854Z,58.35
2022-08-15T18:37:32.457Z,58.60
2022-08-15T18:40:38.986Z,58.92
2022-08-15T18:43:11.285Z,59.43
2022-08-15T18:45:44.027Z,59.74
2022-08-15T18:48:33.754Z,59.71
2022-08-15T18:51:10.574Z,60.31
2022-08-15T18:53:56.918Z,60.55
2022-08-15T18:56:30.708Z,61.11
2022-08-15T18:59:02.851Z,61.33
2022-08-15T19:01:38.511Z,61.78
2022-08-15T19:04:50.346Z,61.61
2022-08-15T19:07:13.055Z,61.48
2022-08-15T19:09:44.706Z,61.64
2022-08-15T19:12:25.793Z,61.92
2022-08-15T19:15:16.266Z,61.54
2022-08-15T19:17:51.998Z,61.56
2022-08-15T19:23:09.447Z,61.18
2022-08-15T19:24:28.521Z,61.49
2022-08-15T19:25:46.267Z,61.27
2022-08-15T19:28:40.482Z,61.66
2022-08-15T19:31:52.727Z,62.00
2022-08-15T19:34:29.002Z,62.11
2022-08-15T19:37:02.427Z,62.31
2022-08-15T19:39:50.139Z,62.24
2022-08-15T19:42:31.348Z,62.42
2022-08-15T19:45:38.264Z,62.65
2022-08-15T19:48:16.060Z,62.88
2022-08-15T19:51:10.889Z,62.59
2022-08-15T19:55:19.997Z,62.93
2022-08-15T19:56:44.881Z,63.09
2022-08-15T19:59:42.412Z,63.08
2022-08-15T20:02:27.145Z,62.76
2022-08-15T20:06:06.197Z,63.08
2022-08-15T20:09:03.007Z,63.13
2022-08-15T20:11:42.022Z,63.14
2022-08-15T20:14:46.283Z,63.21
2022-08-15T20:17:29.147Z,63.58
2022-08-15T20:20:44.063Z,63.58
2022-08-15T20:23:41.649Z,63.35
2022-08-15T20:26:23.156Z,63.66
2022-08-15T20:28:58.051Z,63.66
2022-08-15T20:31:58.690Z,63.33
2022-08-15T20:34:30.692Z,63.69
2022-08-15T20:37:01.772Z,64.25
2022-08-15T20:39:32.603Z,64.77
2022-08-15T20:42:27.462Z,65.01
2022-08-15T20:45:02.883Z,64.78
2022-08-15T20:47:44.212Z,65.19
2022-08-15T20:50:26.409Z,65.14
2022-08-15T20:52:58.981Z,65.42
2022-08-15T20:55:35.257Z,65.26
2022-08-15T20:58:27.881Z,65.82
2022-08-15T21:01:18.105Z,66.03
2022-08-15T21:04:11.426Z,66.26
2022-08-15T21:06:57.079Z,66.17
2022-08-15T21:09:43.316Z,66.75
2022-08-15T21:12:28.948Z,66.79
2022-08-15T21:15:42.400Z,67.47
2022-08-15T21:18:34.255Z,67.75
2022-08-15T21:21:03.672Z,67.94
2022-08-15T21:23:36.201Z,68.12
2022-08-15T21:26:24.863Z,68.32
2022-08-15T21:29:28.033Z,68.64
2022-08-15T21:31:57.566Z,68.48
2022-08-15T21:34:34.481Z,67.89
2022-08-15T21:37:33.807Z,67.98
2022-08-15T21:40:04.830Z,67.63
2022-08-15T21:42:32.571Z,67.75
2022-08-15T21:45:01.878Z,67.95
2022-08-15T21:47:36.054Z,67.86
2022-08-15T21:50:25.350Z,68.18
2022-08-15T21:53:00.579Z,68.10
2022-08-15T21:55:36.391Z,68.18
2022-08-15T21:58:33.710Z,68.33
2022-08-15T22:01:38.507Z,68.40
2022-08-15T22:04:12.644Z,68.71
2022-08-15T22:06:39.274Z,68.64
2022-08-15T22:09:06.326Z,68.44
2022-08-15T22:11:44.219Z,68.26
2022-08-15T22:14:28.320Z,68.25
2022-08-15T22:16:58.303Z,68.45
2022-08-15T22:19:28.161Z,68.84
2022-08-15T22:21:55.081Z,69.00
2022-08-15T22:24:33.859Z,68.80
2022-08-15T22:27:00.461Z,68.83
2022-08-15T22:29:32.323Z,69.08
2022-08-15T22:32:11.979Z,68.95
2022-08-15T22:34:51.230Z,69.32
2022-08-15T22:37:20.245Z,69.33
2022-08-15T22:39:47.856Z,69.54
2022-08-15T22:42:24.394Z,69.76
2022-08-15T22:44:52.321Z,69.95
2022-08-15T22:47:21.875Z,70.08
2022-08-15T22:49:55.017Z,69.99
2022-08-15T22:52:26.015Z,70.09
2022-08-15T22:54:52.881Z,70.04
2022-08-15T22:57:58.247Z,70.20
2022-08-15T23:00:15.887Z,70.21
2022-08-15T23:02:46.050Z,70.54
2022-08-15T23:05:41.042Z,70.76
2022-08-15T23:08:25.211Z,71.18
2022-08-15T23:10:58.404Z,71.00
2022-08-15T23:13:59.931Z,71.23
2022-08-15T23:16:33.226Z,71.28
2022-08-15T23:19:14.208Z,71.12
2022-08-15T23:21:41.113Z,71.30
2022-08-15T23:24:21.058Z,71.18
2022-08-15T23:26:58.761Z,71.35
2022-08-15T23:29:29.283Z,71.35
2022-08-15T23:32:28.765Z,71.48
2022-08-15T23:35:00.194Z,71.49
2022-08-15T23:37:35.936Z,71.50
2022-08-15T23:40:08.322Z,71.52
2022-08-15T23:42:46.710Z,71.48
2022-08-15T23:45:16.180Z,71.67
2022-08-15T23:47:44.421Z,71.73
2022-08-15T23:50:13.883Z,71.73
2022-08-15T23:52:45.277Z,71.75
2022-08-15T23:55:17.394Z,71.58
